sensor_id;sensor_type;location;lat;lon;timestamp;pressure;altitude;pressure_sealevel;temperature;humidity
69171;BME280;56279;47.902;12.308;2023-05-19T00:00:53;95811.63;;;9.58;80.36
69171;BME280;56279;47.902;12.308;2023-05-19T00:02:54;95812.66;;;9.57;80.32
69171;BME280;56279;47.902;12.308;2023-05-19T00:05:00;95808.19;;;9.58;80.50
69171;BME280;56279;47.902;12.308;2023-05-19T00:07:02;95803.19;;;9.56;80.59
69171;BME280;56279;47.902;12.308;2023-05-19T00:09:05;95802.41;;;9.56;80.76
69171;BME280;56279;47.902;12.308;2023-05-19T00:11:09;95807.94;;;9.54;80.64
69171;BME280;56279;47.902;12.308;2023-05-19T00:13:11;95805.53;;;9.53;80.40
69171;BME280;56279;47.902;12.308;2023-05-19T00:15:13;95795.28;;;9.51;80.42
69171;BME280;56279;47.902;12.308;2023-05-19T00:17:14;95795.28;;;9.51;80.64
69171;BME280;56279;47.902;12.308;2023-05-19T00:19:16;95797.09;;;9.51;81.06
69171;BME280;56279;47.902;12.308;2023-05-19T00:21:19;95793.66;;;9.50;81.03
69171;BME280;56279;47.902;12.308;2023-05-19T00:23:20;95794.75;;;9.49;81.27
69171;BME280;56279;47.902;12.308;2023-05-19T00:25:22;95794.75;;;9.49;81.21
69171;BME280;56279;47.902;12.308;2023-05-19T00:27:23;95789.47;;;9.49;81.22
69171;BME280;56279;47.902;12.308;2023-05-19T00:29:24;95784.97;;;9.50;81.48
69171;BME280;56279;47.902;12.308;2023-05-19T00:31:27;95778.13;;;9.49;81.51
69171;BME280;56279;47.902;12.308;2023-05-19T00:33:29;95782.34;;;9.50;81.58
69171;BME280;56279;47.902;12.308;2023-05-19T00:35:31;95781.03;;;9.47;81.72
69171;BME280;56279;47.902;12.308;2023-05-19T00:37:33;95774.16;;;9.46;81.67
69171;BME280;56279;47.902;12.308;2023-05-19T00:39:36;95778.09;;;9.44;81.63
69171;BME280;56279;47.902;12.308;2023-05-19T00:41:37;95782.56;;;9.43;82.07
69171;BME280;56279;47.902;12.308;2023-05-19T00:43:38;95779.41;;;9.41;81.98
69171;BME280;56279;47.902;12.308;2023-05-19T00:45:39;95785.75;;;9.40;81.93
69171;BME280;56279;47.902;12.308;2023-05-19T00:47:41;95783.34;;;9.39;81.87
69171;BME280;56279;47.902;12.308;2023-05-19T00:49:43;95782.03;;;9.36;82.00
69171;BME280;56279;47.902;12.308;2023-05-19T00:51:44;95777.81;;;9.35;82.19
69171;BME280;56279;47.902;12.308;2023-05-19T00:53:47;95776.22;;;9.34;82.03
69171;BME280;56279;47.902;12.308;2023-05-19T00:55:50;95776.50;;;9.33;82.13
69171;BME280;56279;47.902;12.308;2023-05-19T00:57:52;95765.16;;;9.32;82.52
69171;BME280;56279;47.902;12.308;2023-05-19T00:59:54;95765.66;;;9.29;82.60
69171;BME280;56279;47.902;12.308;2023-05-19T01:01:56;95767.78;;;9.27;82.33
69171;BME280;56279;47.902;12.308;2023-05-19T01:03:57;95763.81;;;9.25;82.49
69171;BME280;56279;47.902;12.308;2023-05-19T01:05:59;95756.69;;;9.20;82.94
69171;BME280;56279;47.902;12.308;2023-05-19T01:08:08;95770.63;;;9.16;83.02
69171;BME280;56279;47.902;12.308;2023-05-19T01:10:11;95768.75;;;9.11;82.85
69171;BME280;56279;47.902;12.308;2023-05-19T01:12:12;95770.31;;;9.07;83.13
69171;BME280;56279;47.902;12.308;2023-05-19T01:14:14;95773.44;;;9.04;83.46
69171;BME280;56279;47.902;12.308;2023-05-19T01:16:32;95776.06;;;8.99;83.21
69171;BME280;56279;47.902;12.308;2023-05-19T01:18:39;95768.94;;;8.99;83.35
69171;BME280;56279;47.902;12.308;2023-05-19T01:20:50;95771.31;;;8.96;83.66
69171;BME280;56279;47.902;12.308;2023-05-19T01:32:18;95774.91;;;8.85;83.89
69171;BME280;56279;47.902;12.308;2023-05-19T01:34:22;95773.59;;;8.82;84.28
69171;BME280;56279;47.902;12.308;2023-05-19T01:36:25;95773.59;;;8.82;84.32
69171;BME280;56279;47.902;12.308;2023-05-19T01:38:27;95775.44;;;8.82;84.38
69171;BME280;56279;47.902;12.308;2023-05-19T01:40:29;95779.13;;;8.81;84.55
69171;BME280;56279;47.902;12.308;2023-05-19T01:42:32;95778.84;;;8.77;84.39
69171;BME280;56279;47.902;12.308;2023-05-19T01:44:39;95775.41;;;8.77;84.69
69171;BME280;56279;47.902;12.308;2023-05-19T01:46:41;95770.38;;;8.75;84.65
69171;BME280;56279;47.902;12.308;2023-05-19T01:48:43;95781.97;;;8.74;84.57
69171;BME280;56279;47.902;12.308;2023-05-19T01:50:45;95779.34;;;8.74;84.53
69171;BME280;56279;47.902;12.308;2023-05-19T01:52:47;95769.63;;;8.75;84.77
69171;BME280;56279;47.902;12.308;2023-05-19T01:54:48;95770.66;;;8.74;84.81
69171;BME280;56279;47.902;12.308;2023-05-19T01:57:23;95770.38;;;8.70;84.64
69171;BME280;56279;47.902;12.308;2023-05-19T02:01:56;95766.69;;;8.71;84.80
69171;BME280;56279;47.902;12.308;2023-05-19T02:04:23;95761.69;;;8.70;84.77
69171;BME280;56279;47.902;12.308;2023-05-19T02:06:48;95763.25;;;8.71;84.97
69171;BME280;56279;47.902;12.308;2023-05-19T02:13:55;95763.50;;;8.69;85.09
69171;BME280;56279;47.902;12.308;2023-05-19T02:16:03;95764.31;;;8.70;85.02
69171;BME280;56279;47.902;12.308;2023-05-19T02:18:08;95757.47;;;8.69;85.15
69171;BME280;56279;47.902;12.308;2023-05-19T02:20:11;95762.72;;;8.69;85.30
69171;BME280;56279;47.902;12.308;2023-05-19T02:22:12;95759.28;;;8.68;85.23
69171;BME280;56279;47.902;12.308;2023-05-19T02:24:14;95755.34;;;8.66;85.21
69171;BME280;56279;47.902;12.308;2023-05-19T02:26:16;95762.69;;;8.64;85.38
69171;BME280;56279;47.902;12.308;2023-05-19T02:28:18;95755.31;;;8.61;85.75
69171;BME280;56279;47.902;12.308;2023-05-19T02:30:19;95760.28;;;8.57;85.57
69171;BME280;56279;47.902;12.308;2023-05-19T02:32:21;95760.00;;;8.54;85.95
69171;BME280;56279;47.902;12.308;2023-05-19T02:34:23;95755.25;;;8.51;86.09
69171;BME280;56279;47.902;12.308;2023-05-19T02:36:24;95751.53;;;8.47;86.09
69171;BME280;56279;47.902;12.308;2023-05-19T02:38:26;95755.69;;;8.43;85.91
69171;BME280;56279;47.902;12.308;2023-05-19T02:40:27;95753.06;;;8.38;85.94
69171;BME280;56279;47.902;12.308;2023-05-19T02:42:29;95758.00;;;8.34;86.28
69171;BME280;56279;47.902;12.308;2023-05-19T02:44:30;95752.47;;;8.30;86.23
69171;BME280;56279;47.902;12.308;2023-05-19T02:46:32;95755.84;;;8.26;86.82
69171;BME280;56279;47.902;12.308;2023-05-19T02:48:33;95751.06;;;8.23;86.77
69171;BME280;56279;47.902;12.308;2023-05-19T02:50:35;95755.47;;;8.17;86.75
69171;BME280;56279;47.902;12.308;2023-05-19T02:52:37;95746.50;;;8.13;87.20
69171;BME280;56279;47.902;12.308;2023-05-19T02:54:38;95751.47;;;8.10;87.27
69171;BME280;56279;47.902;12.308;2023-05-19T02:56:39;95750.38;;;8.06;87.23
69171;BME280;56279;47.902;12.308;2023-05-19T02:58:40;95746.41;;;8.03;87.23
69171;BME280;56279;47.902;12.308;2023-05-19T03:00:43;95744.03;;;8.02;87.34
69171;BME280;56279;47.902;12.308;2023-05-19T03:02:45;95746.94;;;8.00;87.66
69171;BME280;56279;47.902;12.308;2023-05-19T03:04:46;95751.41;;;8.00;87.42
69171;BME280;56279;47.902;12.308;2023-05-19T03:06:48;95749.25;;;7.97;87.36
69171;BME280;56279;47.902;12.308;2023-05-19T03:08:50;95752.69;;;7.97;87.50
69171;BME280;56279;47.902;12.308;2023-05-19T03:10:51;95742.16;;;7.97;88.00
69171;BME280;56279;47.902;12.308;2023-05-19T03:12:52;95750.06;;;7.97;88.00
69171;BME280;56279;47.902;12.308;2023-05-19T03:14:54;95749.78;;;7.99;87.88
69171;BME280;56279;47.902;12.308;2023-05-19T03:16:55;95750.59;;;7.99;87.89
69171;BME280;56279;47.902;12.308;2023-05-19T03:18:57;95751.13;;;8.01;88.01
69171;BME280;56279;47.902;12.308;2023-05-19T03:20:58;95749.84;;;8.04;87.62
69171;BME280;56279;47.902;12.308;2023-05-19T03:22:59;95751.97;;;8.07;87.79
69171;BME280;56279;47.902;12.308;2023-05-19T03:25:01;95760.41;;;8.09;87.85
69171;BME280;56279;47.902;12.308;2023-05-19T03:27:03;95747.25;;;8.09;87.72
69171;BME280;56279;47.902;12.308;2023-05-19T03:29:06;95760.44;;;8.14;88.01
69171;BME280;56279;47.902;12.308;2023-05-19T03:31:11;95752.84;;;8.17;87.63
69171;BME280;56279;47.902;12.308;2023-05-19T03:33:14;95752.63;;;8.19;87.95
69171;BME280;56279;47.902;12.308;2023-05-19T03:35:15;95754.50;;;8.23;87.89
69171;BME280;56279;47.902;12.308;2023-05-19T03:37:17;95744.50;;;8.25;87.95
69171;BME280;56279;47.902;12.308;2023-05-19T03:39:18;95748.72;;;8.26;88.11
69171;BME280;56279;47.902;12.308;2023-05-19T03:41:22;95743.47;;;8.26;87.84
69171;BME280;56279;47.902;12.308;2023-05-19T03:43:24;95744.28;;;8.27;87.68
69171;BME280;56279;47.902;12.308;2023-05-19T03:45:35;95741.66;;;8.27;87.81
69171;BME280;56279;47.902;12.308;2023-05-19T03:47:49;95743.25;;;8.28;88.06
69171;BME280;56279;47.902;12.308;2023-05-19T03:50:26;95750.34;;;8.27;87.47
69171;BME280;56279;47.902;12.308;2023-05-19T03:52:36;95750.06;;;8.29;87.71
69171;BME280;56279;47.902;12.308;2023-05-19T03:54:53;95751.94;;;8.33;87.57
69171;BME280;56279;47.902;12.308;2023-05-19T03:56:54;95752.53;;;8.41;87.43
69171;BME280;56279;47.902;12.308;2023-05-19T03:58:55;95746.28;;;8.47;87.71
69171;BME280;56279;47.902;12.308;2023-05-19T04:00:57;95747.63;;;8.54;87.45
69171;BME280;56279;47.902;12.308;2023-05-19T04:02:58;95749.78;;;8.62;86.92
69171;BME280;56279;47.902;12.308;2023-05-19T04:05:00;95740.63;;;8.70;87.08
69171;BME280;56279;47.902;12.308;2023-05-19T04:07:01;95755.16;;;8.77;87.10
69171;BME280;56279;47.902;12.308;2023-05-19T04:09:12;95746.22;;;8.83;86.77
69171;BME280;56279;47.902;12.308;2023-05-19T04:11:14;95743.91;;;8.92;86.77
69171;BME280;56279;47.902;12.308;2023-05-19T04:13:16;95737.63;;;8.98;86.57
69171;BME280;56279;47.902;12.308;2023-05-19T04:15:17;95748.69;;;9.00;86.02
69171;BME280;56279;47.902;12.308;2023-05-19T04:17:18;95747.13;;;9.04;86.27
69171;BME280;56279;47.902;12.308;2023-05-19T04:19:20;95737.66;;;9.08;85.51
69171;BME280;56279;47.902;12.308;2023-05-19T04:21:21;95744.78;;;9.13;86.12
69171;BME280;56279;47.902;12.308;2023-05-19T04:23:23;95737.19;;;9.16;86.18
69171;BME280;56279;47.902;12.308;2023-05-19T04:25:24;95741.16;;;9.19;85.55
69171;BME280;56279;47.902;12.308;2023-05-19T04:27:28;95740.88;;;9.20;85.78
69171;BME280;56279;47.902;12.308;2023-05-19T04:29:32;95732.75;;;9.22;85.74
69171;BME280;56279;47.902;12.308;2023-05-19T04:31:35;95738.25;;;9.20;85.38
69171;BME280;56279;47.902;12.308;2023-05-19T04:33:39;95744.56;;;9.19;85.52
69171;BME280;56279;47.902;12.308;2023-05-19T04:35:41;95735.34;;;9.17;85.99
69171;BME280;56279;47.902;12.308;2023-05-19T04:37:45;95737.72;;;9.18;85.78
69171;BME280;56279;47.902;12.308;2023-05-19T04:39:49;95743.28;;;9.22;85.78
69171;BME280;56279;47.902;12.308;2023-05-19T04:41:53;95738.28;;;9.25;85.28
69171;BME280;56279;47.902;12.308;2023-05-19T04:43:55;95740.41;;;9.28;85.35
69171;BME280;56279;47.902;12.308;2023-05-19T04:45:59;95740.13;;;9.30;85.29
69171;BME280;56279;47.902;12.308;2023-05-19T04:48:02;95736.19;;;9.32;84.82
69171;BME280;56279;47.902;12.308;2023-05-19T04:50:04;95733.84;;;9.36;85.37
69171;BME280;56279;47.902;12.308;2023-05-19T04:52:07;95734.63;;;9.41;85.23
69171;BME280;56279;47.902;12.308;2023-05-19T04:54:10;95739.63;;;9.43;84.95
69171;BME280;56279;47.902;12.308;2023-05-19T04:56:12;95737.28;;;9.46;85.01
69171;BME280;56279;47.902;12.308;2023-05-19T04:58:16;95734.38;;;9.48;84.54
69171;BME280;56279;47.902;12.308;2023-05-19T05:00:19;95739.66;;;9.48;85.07
69171;BME280;56279;47.902;12.308;2023-05-19T05:02:29;95734.16;;;9.49;84.86
69171;BME280;56279;47.902;12.308;2023-05-19T05:04:32;95736.25;;;9.52;84.63
69171;BME280;56279;47.902;12.308;2023-05-19T05:06:33;95731.53;;;9.54;84.70
69171;BME280;56279;47.902;12.308;2023-05-19T05:08:40;95728.34;;;9.57;84.58
69171;BME280;56279;47.902;12.308;2023-05-19T05:10:43;95727.84;;;9.60;84.55
69171;BME280;56279;47.902;12.308;2023-05-19T05:12:44;95731.53;;;9.64;84.21
69171;BME280;56279;47.902;12.308;2023-05-19T05:14:46;95726.78;;;9.66;84.42
69171;BME280;56279;47.902;12.308;2023-05-19T05:16:49;95720.47;;;9.67;84.19
69171;BME280;56279;47.902;12.308;2023-05-19T05:18:55;95716.78;;;9.68;83.84
69171;BME280;56279;47.902;12.308;2023-05-19T05:20:58;95715.47;;;9.71;84.29
69171;BME280;56279;47.902;12.308;2023-05-19T05:22:59;95717.06;;;9.77;84.83
69171;BME280;56279;47.902;12.308;2023-05-19T05:25:02;95722.34;;;9.82;83.91
69171;BME280;56279;47.902;12.308;2023-05-19T05:27:03;95726.31;;;9.90;84.16
69171;BME280;56279;47.902;12.308;2023-05-19T05:29:08;95723.66;;;9.95;83.80
69171;BME280;56279;47.902;12.308;2023-05-19T05:31:09;95723.69;;;10.05;83.48
69171;BME280;56279;47.902;12.308;2023-05-19T05:33:12;95723.19;;;10.13;83.51
69171;BME280;56279;47.902;12.308;2023-05-19T05:35:15;95731.63;;;10.20;nan
69171;BME280;56279;47.902;12.308;2023-05-19T05:37:17;95726.34;;;10.25;83.30
69171;BME280;56279;47.902;12.308;2023-05-19T05:39:19;95726.88;;;10.27;83.37
69171;BME280;56279;47.902;12.308;2023-05-19T05:41:25;95718.44;;;10.30;82.98
69171;BME280;56279;47.902;12.308;2023-05-19T05:43:28;95720.03;;;10.36;82.86
69171;BME280;56279;47.902;12.308;2023-05-19T05:45:34;95725.84;;;10.43;82.81
69171;BME280;56279;47.902;12.308;2023-05-19T05:47:36;95729.50;;;10.47;82.68
69171;BME280;56279;47.902;12.308;2023-05-19T05:49:39;95725.28;;;10.51;82.61
69171;BME280;56279;47.902;12.308;2023-05-19T05:51:43;95723.16;;;10.53;82.82
69171;BME280;56279;47.902;12.308;2023-05-19T05:53:51;95726.84;;;10.57;82.36
69171;BME280;56279;47.902;12.308;2023-05-19T05:55:54;95727.38;;;10.64;82.41
69171;BME280;56279;47.902;12.308;2023-05-19T05:58:00;95731.31;;;10.77;82.12
69171;BME280;56279;47.902;12.308;2023-05-19T06:00:03;95728.66;;;10.87;81.83
69171;BME280;56279;47.902;12.308;2023-05-19T06:02:16;95733.38;;;10.90;81.60
69171;BME280;56279;47.902;12.308;2023-05-19T06:04:18;95731.03;;;10.88;81.56
69171;BME280;56279;47.902;12.308;2023-05-19T06:06:20;95735.25;;;10.94;81.46
69171;BME280;56279;47.902;12.308;2023-05-19T06:08:22;95728.34;;;11.03;81.33
69171;BME280;56279;47.902;12.308;2023-05-19T06:10:23;95734.38;;;11.19;80.96
69171;BME280;56279;47.902;12.308;2023-05-19T06:12:26;95731.91;;;11.33;80.54
69171;BME280;56279;47.902;12.308;2023-05-19T06:14:27;95735.06;;;11.40;80.13
69171;BME280;56279;47.902;12.308;2023-05-19T06:16:48;95741.66;;;11.47;79.82
69171;BME280;56279;47.902;12.308;2023-05-19T06:18:52;95734.94;;;11.65;79.64
69171;BME280;56279;47.902;12.308;2023-05-19T06:20:59;95738.34;;;11.81;78.99
69171;BME280;56279;47.902;12.308;2023-05-19T06:23:04;95734.28;;;11.93;78.48
69171;BME280;56279;47.902;12.308;2023-05-19T06:25:06;95730.28;;;11.96;78.48
69171;BME280;56279;47.902;12.308;2023-05-19T06:27:09;95734.56;;;11.92;78.55
69171;BME280;56279;47.902;12.308;2023-05-19T06:29:10;95730.34;;;11.86;78.59
69171;BME280;56279;47.902;12.308;2023-05-19T06:31:12;95731.22;;;11.76;78.73
69171;BME280;56279;47.902;12.308;2023-05-19T06:33:29;95733.88;;;11.66;78.93
69171;BME280;56279;47.902;12.308;2023-05-19T06:35:30;95739.19;;;11.61;78.78
69171;BME280;56279;47.902;12.308;2023-05-19T06:37:32;95736.03;;;11.59;79.01
69171;BME280;56279;47.902;12.308;2023-05-19T06:39:33;95741.31;;;11.64;78.73
69171;BME280;56279;47.902;12.308;2023-05-19T06:41:35;95736.28;;;11.67;78.57
69171;BME280;56279;47.902;12.308;2023-05-19T06:43:37;95735.47;;;11.72;78.58
69171;BME280;56279;47.902;12.308;2023-05-19T06:45:39;95734.88;;;11.85;78.27
69171;BME280;56279;47.902;12.308;2023-05-19T06:47:41;95732.38;;;11.99;77.79
69171;BME280;56279;47.902;12.308;2023-05-19T06:49:44;95726.28;;;12.03;77.51
69171;BME280;56279;47.902;12.308;2023-05-19T06:51:46;95732.63;;;12.02;77.72
69171;BME280;56279;47.902;12.308;2023-05-19T06:53:48;95731.09;;;11.96;77.57
69171;BME280;56279;47.902;12.308;2023-05-19T06:55:49;95727.66;;;11.91;77.94
69171;BME280;56279;47.902;12.308;2023-05-19T06:57:54;95729.25;;;11.92;78.02
69171;BME280;56279;47.902;12.308;2023-05-19T06:59:55;95725.19;;;12.04;77.80
69171;BME280;56279;47.902;12.308;2023-05-19T07:01:58;95732.75;;;12.21;77.52
69171;BME280;56279;47.902;12.308;2023-05-19T07:03:59;95731.25;;;12.43;76.55
69171;BME280;56279;47.902;12.308;2023-05-19T07:06:01;95724.25;;;12.58;76.07
69171;BME280;56279;47.902;12.308;2023-05-19T07:08:03;95714.84;;;12.70;75.22
69171;BME280;56279;47.902;12.308;2023-05-19T07:10:05;95719.31;;;12.75;75.25
69171;BME280;56279;47.902;12.308;2023-05-19T07:12:07;95707.25;;;12.87;74.92
69171;BME280;56279;47.902;12.308;2023-05-19T07:14:08;95718.47;;;13.03;75.02
69171;BME280;56279;47.902;12.308;2023-05-19T07:16:10;95714.16;;;13.12;74.22
69171;BME280;56279;47.902;12.308;2023-05-19T07:18:13;95715.19;;;13.16;74.02
69171;BME280;56279;47.902;12.308;2023-05-19T07:20:14;95722.56;;;13.19;74.02
69171;BME280;56279;47.902;12.308;2023-05-19T07:22:16;95711.91;;;13.24;73.63
69171;BME280;56279;47.902;12.308;2023-05-19T07:24:18;95707.97;;;13.22;73.35
69171;BME280;56279;47.902;12.308;2023-05-19T07:26:21;95709.03;;;13.21;73.23
69171;BME280;56279;47.902;12.308;2023-05-19T07:28:22;95713.34;;;13.35;73.66
69171;BME280;56279;47.902;12.308;2023-05-19T07:30:26;95711.25;;;13.56;73.04
69171;BME280;56279;47.902;12.308;2023-05-19T07:32:28;95713.91;;;13.74;72.57
69171;BME280;56279;47.902;12.308;2023-05-19T07:34:29;95707.22;;;13.96;72.13
69171;BME280;56279;47.902;12.308;2023-05-19T07:36:30;95702.19;;;14.13;71.33
69171;BME280;56279;47.902;12.308;2023-05-19T07:38:31;95703.53;;;14.29;71.48
69171;BME280;56279;47.902;12.308;2023-05-19T07:40:35;95705.97;;;14.44;70.71
69171;BME280;56279;47.902;12.308;2023-05-19T07:42:37;95701.06;;;14.51;70.95
69171;BME280;56279;47.902;12.308;2023-05-19T07:44:38;95706.88;;;14.53;69.93
69171;BME280;56279;47.902;12.308;2023-05-19T07:46:39;95707.34;;;14.41;70.73
69171;BME280;56279;47.902;12.308;2023-05-19T07:48:41;95699.47;;;14.36;69.99
69171;BME280;56279;47.902;12.308;2023-05-19T07:50:42;95704.84;;;14.13;70.02
69171;BME280;56279;47.902;12.308;2023-05-19T07:52:44;95701.84;;;14.01;70.76
69171;BME280;56279;47.902;12.308;2023-05-19T07:54:45;95698.56;;;14.09;70.97
69171;BME280;56279;47.902;12.308;2023-05-19T07:56:47;95698.75;;;14.31;70.53
69171;BME280;56279;47.902;12.308;2023-05-19T07:58:48;95701.41;;;14.63;69.59
69171;BME280;56279;47.902;12.308;2023-05-19T08:00:52;95704.66;;;14.87;69.24
69171;BME280;56279;47.902;12.308;2023-05-19T08:02:53;95706.66;;;14.95;68.71
69171;BME280;56279;47.902;12.308;2023-05-19T08:04:56;95708.31;;;14.91;68.25
69171;BME280;56279;47.902;12.308;2023-05-19T08:06:58;95696.38;;;14.75;68.85
69171;BME280;56279;47.902;12.308;2023-05-19T08:09:00;95697.81;;;14.54;69.21
69171;BME280;56279;47.902;12.308;2023-05-19T08:11:02;95698.47;;;14.32;69.97
69171;BME280;56279;47.902;12.308;2023-05-19T08:13:04;95699.38;;;14.23;70.45
69171;BME280;56279;47.902;12.308;2023-05-19T08:15:07;95699.97;;;14.20;70.43
69171;BME280;56279;47.902;12.308;2023-05-19T08:17:12;95701.63;;;14.16;70.46
69171;BME280;56279;47.902;12.308;2023-05-19T08:19:15;95702.91;;;14.18;70.26
69171;BME280;56279;47.902;12.308;2023-05-19T08:21:16;95701.56;;;14.21;70.47
69171;BME280;56279;47.902;12.308;2023-05-19T08:23:18;95700.44;;;14.22;70.27
69171;BME280;56279;47.902;12.308;2023-05-19T08:25:19;95690.69;;;14.17;70.40
69171;BME280;56279;47.902;12.308;2023-05-19T08:27:20;95696.09;;;14.12;70.64
69171;BME280;56279;47.902;12.308;2023-05-19T08:29:22;95693.31;;;14.04;70.04
69171;BME280;56279;47.902;12.308;2023-05-19T08:31:24;95702.56;;;14.06;70.60
69171;BME280;56279;47.902;12.308;2023-05-19T08:33:26;95697.88;;;14.17;69.87
69171;BME280;56279;47.902;12.308;2023-05-19T08:35:28;95688.91;;;14.31;69.19
69171;BME280;56279;47.902;12.308;2023-05-19T08:37:30;95698.66;;;14.36;69.05
69171;BME280;56279;47.902;12.308;2023-05-19T08:39:31;95703.09;;;14.40;68.15
69171;BME280;56279;47.902;12.308;2023-05-19T08:41:34;95698.69;;;14.49;68.81
69171;BME280;56279;47.902;12.308;2023-05-19T08:43:39;95696.28;;;14.67;68.05
69171;BME280;56279;47.902;12.308;2023-05-19T08:45:42;95702.41;;;14.81;67.91
69171;BME280;56279;47.902;12.308;2023-05-19T08:47:45;95697.81;;;15.00;68.01
69171;BME280;56279;47.902;12.308;2023-05-19T08:49:51;95698.97;;;15.21;67.47
69171;BME280;56279;47.902;12.308;2023-05-19T08:54:16;95697.38;;;15.34;66.45
69171;BME280;56279;47.902;12.308;2023-05-19T08:56:22;95694.94;;;15.23;66.36
69171;BME280;56279;47.902;12.308;2023-05-19T08:58:26;95692.84;;;15.34;65.97
69171;BME280;56279;47.902;12.308;2023-05-19T09:00:29;95695.03;;;15.46;64.79
69171;BME280;56279;47.902;12.308;2023-05-19T09:02:31;95689.31;;;15.52;65.23
69171;BME280;56279;47.902;12.308;2023-05-19T09:04:33;95689.38;;;15.74;65.18
69171;BME280;56279;47.902;12.308;2023-05-19T09:06:35;95685.75;;;15.93;63.98
69171;BME280;56279;47.902;12.308;2023-05-19T09:08:37;95688.91;;;15.72;64.10
69171;BME280;56279;47.902;12.308;2023-05-19T09:10:38;95689.63;;;15.51;64.68
69171;BME280;56279;47.902;12.308;2023-05-19T09:12:44;95695.22;;;15.22;65.48
69171;BME280;56279;47.902;12.308;2023-05-19T09:14:46;95691.59;;;15.04;66.63
69171;BME280;56279;47.902;12.308;2023-05-19T09:16:48;95690.09;;;14.85;65.99
69171;BME280;56279;47.902;12.308;2023-05-19T09:18:53;95691.84;;;14.62;66.91
69171;BME280;56279;47.902;12.308;2023-05-19T09:20:57;95685.34;;;14.54;66.52
69171;BME280;56279;47.902;12.308;2023-05-19T09:23:02;95685.88;;;14.38;67.28
69171;BME280;56279;47.902;12.308;2023-05-19T09:25:03;95685.47;;;14.31;67.10
69171;BME280;56279;47.902;12.308;2023-05-19T09:27:10;95696.88;;;14.31;67.71
69171;BME280;56279;47.902;12.308;2023-05-19T09:29:16;95682.59;;;14.27;67.70
69171;BME280;56279;47.902;12.308;2023-05-19T09:31:17;95686.69;;;14.20;68.31
69171;BME280;56279;47.902;12.308;2023-05-19T09:33:18;95685.53;;;14.07;67.68
69171;BME280;56279;47.902;12.308;2023-05-19T09:39:22;95680.00;;;13.90;68.13
69171;BME280;56279;47.902;12.308;2023-05-19T09:41:23;95684.06;;;13.82;68.29
69171;BME280;56279;47.902;12.308;2023-05-19T09:43:29;95678.78;;;13.82;68.15
69171;BME280;56279;47.902;12.308;2023-05-19T09:45:34;95685.06;;;13.86;68.60
69171;BME280;56279;47.902;12.308;2023-05-19T09:50:44;95681.56;;;13.91;68.45
69171;BME280;56279;47.902;12.308;2023-05-19T09:53:08;95673.44;;;14.01;68.64
69171;BME280;56279;47.902;12.308;2023-05-19T09:55:19;95675.16;;;14.11;68.47
69171;BME280;56279;47.902;12.308;2023-05-19T09:57:25;95674.69;;;14.22;68.38
69171;BME280;56279;47.902;12.308;2023-05-19T09:59:33;95667.16;;;14.29;67.68
69171;BME280;56279;47.902;12.308;2023-05-19T10:01:42;95673.88;;;14.40;67.14
69171;BME280;56279;47.902;12.308;2023-05-19T10:04:35;95672.34;;;14.53;66.60
69171;BME280;56279;47.902;12.308;2023-05-19T10:06:42;95666.25;;;14.52;66.99
69171;BME280;56279;47.902;12.308;2023-05-19T10:08:47;95664.41;;;14.67;66.63
69171;BME280;56279;47.902;12.308;2023-05-19T10:11:03;95661.84;;;14.75;65.99
69171;BME280;56279;47.902;12.308;2023-05-19T10:13:31;95677.13;;;14.97;65.84
69171;BME280;56279;47.902;12.308;2023-05-19T10:15:55;95669.53;;;15.17;65.04
69171;BME280;56279;47.902;12.308;2023-05-19T10:26:14;95667.53;;;15.37;64.21
69171;BME280;56279;47.902;12.308;2023-05-19T10:28:21;95663.13;;;15.32;64.65
69171;BME280;56279;47.902;12.308;2023-05-19T10:31:16;95665.00;;;15.18;64.60
69171;BME280;56279;47.902;12.308;2023-05-19T10:34:13;95669.75;;;15.07;64.93
69171;BME280;56279;47.902;12.308;2023-05-19T10:36:39;95665.41;;;15.11;64.74
69171;BME280;56279;47.902;12.308;2023-05-19T10:47:24;95652.09;;;15.25;64.17
69171;BME280;56279;47.902;12.308;2023-05-19T10:53:41;95651.06;;;15.62;63.43
69171;BME280;56279;47.902;12.308;2023-05-19T10:56:09;95648.66;;;15.74;62.66
69171;BME280;56279;47.902;12.308;2023-05-19T11:00:59;95652.91;;;15.97;62.46
69171;BME280;56279;47.902;12.308;2023-05-19T11:03:29;95653.22;;;15.96;62.44
69171;BME280;56279;47.902;12.308;2023-05-19T11:09:04;95648.97;;;15.95;63.42
69171;BME280;56279;47.902;12.308;2023-05-19T11:11:22;95643.38;;;15.96;62.63
69171;BME280;56279;47.902;12.308;2023-05-19T11:13:28;95649.47;;;15.97;63.13
69171;BME280;56279;47.902;12.308;2023-05-19T11:15:42;95644.50;;;16.04;63.11
69171;BME280;56279;47.902;12.308;2023-05-19T11:18:18;95643.19;;;15.93;62.66
69171;BME280;56279;47.902;12.308;2023-05-19T11:28:16;95641.53;;;15.34;64.19
69171;BME280;56279;47.902;12.308;2023-05-19T11:30:19;95648.34;;;15.40;64.42
69171;BME280;56279;47.902;12.308;2023-05-19T11:32:52;95644.72;;;15.49;64.16
69171;BME280;56279;47.902;12.308;2023-05-19T11:38:46;95644.47;;;15.59;63.82
69171;BME280;56279;47.902;12.308;2023-05-19T11:41:02;95645.19;;;15.51;63.59
69171;BME280;56279;47.902;12.308;2023-05-19T11:43:06;95633.06;;;15.32;63.75
69171;BME280;56279;47.902;12.308;2023-05-19T11:45:08;95638.31;;;15.23;64.36
69171;BME280;56279;47.902;12.308;2023-05-19T11:47:12;95636.94;;;15.26;64.25
69171;BME280;56279;47.902;12.308;2023-05-19T11:49:14;95634.34;;;15.34;64.05
69171;BME280;56279;47.902;12.308;2023-05-19T11:51:16;95640.56;;;15.30;63.81
69171;BME280;56279;47.902;12.308;2023-05-19T11:53:17;95655.94;;;15.33;63.76
69171;BME280;56279;47.902;12.308;2023-05-19T11:55:20;95655.53;;;15.39;63.84
69171;BME280;56279;47.902;12.308;2023-05-19T11:57:22;95646.38;;;15.45;63.95
69171;BME280;56279;47.902;12.308;2023-05-19T11:59:34;95649.31;;;15.44;64.16
69171;BME280;56279;47.902;12.308;2023-05-19T12:01:36;95654.06;;;15.47;63.89